sensor_id;sensor_type;location;lat;lon;timestamp;temperature;humidity
3067;DHT22;1544;48.834;9.194;2022-08-01T00:02:22;23.30;30.20
3067;DHT22;1544;48.834;9.194;2022-08-01T00:04:54;23.30;30.30
3067;DHT22;1544;48.834;9.194;2022-08-01T00:07:25;23.20;30.30
3067;DHT22;1544;48.834;9.194;2022-08-01T00:09:56;23.30;30.40
3067;DHT22;1544;48.834;9.194;2022-08-01T00:12:27;23.20;30.40
3067;DHT22;1544;48.834;9.194;2022-08-01T00:14:58;23.20;30.40
3067;DHT22;1544;48.834;9.194;2022-08-01T00:17:29;23.20;30.40
3067;DHT22;1544;48.834;9.194;2022-08-01T00:20:02;23.20;30.50
3067;DHT22;1544;48.834;9.194;2022-08-01T00:22:34;23.10;30.50
3067;DHT22;1544;48.834;9.194;2022-08-01T00:25:06;23.10;30.60
3067;DHT22;1544;48.834;9.194;2022-08-01T00:27:37;23.00;30.60
3067;DHT22;1544;48.834;9.194;2022-08-01T00:30:08;23.00;30.80
3067;DHT22;1544;48.834;9.194;2022-08-01T00:32:44;22.90;30.70
3067;DHT22;1544;48.834;9.194;2022-08-01T00:35:15;22.90;30.90
3067;DHT22;1544;48.834;9.194;2022-08-01T00:37:46;22.90;30.90
3067;DHT22;1544;48.834;9.194;2022-08-01T00:40:17;22.90;31.00
3067;DHT22;1544;48.834;9.194;2022-08-01T00:42:48;22.90;31.10
3067;DHT22;1544;48.834;9.194;2022-08-01T00:45:20;22.80;31.00
3067;DHT22;1544;48.834;9.194;2022-08-01T00:47:50;22.80;31.10
3067;DHT22;1544;48.834;9.194;2022-08-01T00:50:25;22.70;31.20
3067;DHT22;1544;48.834;9.194;2022-08-01T00:52:57;22.70;31.20
3067;DHT22;1544;48.834;9.194;2022-08-01T00:55:30;22.70;31.30
3067;DHT22;1544;48.834;9.194;2022-08-01T00:58:02;22.80;31.40
3067;DHT22;1544;48.834;9.194;2022-08-01T01:00:36;22.70;31.40
3067;DHT22;1544;48.834;9.194;2022-08-01T01:03:24;22.70;31.60
3067;DHT22;1544;48.834;9.194;2022-08-01T01:06:40;22.70;31.60
3067;DHT22;1544;48.834;9.194;2022-08-01T01:09:56;22.70;31.80
3067;DHT22;1544;48.834;9.194;2022-08-01T01:15:29;22.60;31.90
3067;DHT22;1544;48.834;9.194;2022-08-01T01:18:14;22.60;32.00
3067;DHT22;1544;48.834;9.194;2022-08-01T01:20:57;22.50;32.10
3067;DHT22;1544;48.834;9.194;2022-08-01T01:24:10;22.50;32.20
3067;DHT22;1544;48.834;9.194;2022-08-01T01:27:07;22.50;32.30
3067;DHT22;1544;48.834;9.194;2022-08-01T01:29:54;22.50;32.40
3067;DHT22;1544;48.834;9.194;2022-08-01T01:32:35;22.50;32.50
3067;DHT22;1544;48.834;9.194;2022-08-01T01:35:14;22.50;32.60
3067;DHT22;1544;48.834;9.194;2022-08-01T01:37:51;22.40;32.70
3067;DHT22;1544;48.834;9.194;2022-08-01T01:40:28;22.40;32.80
3067;DHT22;1544;48.834;9.194;2022-08-01T01:43:00;22.40;32.90
3067;DHT22;1544;48.834;9.194;2022-08-01T01:45:31;22.40;33.00
3067;DHT22;1544;48.834;9.194;2022-08-01T01:48:03;22.40;33.10
3067;DHT22;1544;48.834;9.194;2022-08-01T01:50:36;22.40;33.10
3067;DHT22;1544;48.834;9.194;2022-08-01T01:53:10;22.40;33.20
3067;DHT22;1544;48.834;9.194;2022-08-01T01:55:47;22.40;33.20
3067;DHT22;1544;48.834;9.194;2022-08-01T01:58:22;22.30;33.30
3067;DHT22;1544;48.834;9.194;2022-08-01T02:00:56;22.30;33.40
3067;DHT22;1544;48.834;9.194;2022-08-01T02:03:33;22.30;33.40
3067;DHT22;1544;48.834;9.194;2022-08-01T02:06:07;22.30;33.60
3067;DHT22;1544;48.834;9.194;2022-08-01T02:08:40;22.30;33.60
3067;DHT22;1544;48.834;9.194;2022-08-01T02:11:12;22.20;33.70
3067;DHT22;1544;48.834;9.194;2022-08-01T02:14:01;22.20;33.80
3067;DHT22;1544;48.834;9.194;2022-08-01T02:16:35;22.20;33.90
3067;DHT22;1544;48.834;9.194;2022-08-01T02:19:06;22.20;34.00
3067;DHT22;1544;48.834;9.194;2022-08-01T02:24:42;22.10;34.10
3067;DHT22;1544;48.834;9.194;2022-08-01T02:27:25;22.10;34.20
3067;DHT22;1544;48.834;9.194;2022-08-01T02:30:00;22.10;34.40
3067;DHT22;1544;48.834;9.194;2022-08-01T02:32:41;22.10;34.50
3067;DHT22;1544;48.834;9.194;2022-08-01T02:35:21;22.00;34.60
3067;DHT22;1544;48.834;9.194;2022-08-01T02:37:58;21.90;34.70
3067;DHT22;1544;48.834;9.194;2022-08-01T02:40:32;22.00;34.90
3067;DHT22;1544;48.834;9.194;2022-08-01T02:43:05;21.90;34.90
3067;DHT22;1544;48.834;9.194;2022-08-01T02:45:41;21.90;35.00
3067;DHT22;1544;48.834;9.194;2022-08-01T02:48:16;21.90;35.20
3067;DHT22;1544;48.834;9.194;2022-08-01T02:50:49;21.90;35.30
3067;DHT22;1544;48.834;9.194;2022-08-01T02:53:23;21.80;35.30
3067;DHT22;1544;48.834;9.194;2022-08-01T02:56:15;21.80;35.40
3067;DHT22;1544;48.834;9.194;2022-08-01T02:58:48;21.80;35.50
3067;DHT22;1544;48.834;9.194;2022-08-01T03:01:21;21.70;35.50
3067;DHT22;1544;48.834;9.194;2022-08-01T03:03:55;21.70;35.60
3067;DHT22;1544;48.834;9.194;2022-08-01T03:06:27;21.70;35.60
3067;DHT22;1544;48.834;9.194;2022-08-01T03:09:00;21.70;35.80
3067;DHT22;1544;48.834;9.194;2022-08-01T03:11:34;21.60;35.80
3067;DHT22;1544;48.834;9.194;2022-08-01T03:14:10;21.60;36.00
3067;DHT22;1544;48.834;9.194;2022-08-01T03:16:43;21.60;36.00
3067;DHT22;1544;48.834;9.194;2022-08-01T03:19:16;21.60;36.20
3067;DHT22;1544;48.834;9.194;2022-08-01T03:21:49;21.50;36.20
3067;DHT22;1544;48.834;9.194;2022-08-01T03:24:21;21.50;36.30
3067;DHT22;1544;48.834;9.194;2022-08-01T03:26:56;21.50;36.30
3067;DHT22;1544;48.834;9.194;2022-08-01T03:29:29;21.50;36.50
3067;DHT22;1544;48.834;9.194;2022-08-01T03:32:01;21.40;36.60
3067;DHT22;1544;48.834;9.194;2022-08-01T03:34:33;21.40;36.70
3067;DHT22;1544;48.834;9.194;2022-08-01T03:37:46;21.30;37.10
3067;DHT22;1544;48.834;9.194;2022-08-01T03:40:41;21.30;36.90
3067;DHT22;1544;48.834;9.194;2022-08-01T03:43:32;21.30;37.00
3067;DHT22;1544;48.834;9.194;2022-08-01T03:46:17;21.30;37.10
3067;DHT22;1544;48.834;9.194;2022-08-01T03:48:52;21.20;37.20
3067;DHT22;1544;48.834;9.194;2022-08-01T03:51:27;21.20;37.40
3067;DHT22;1544;48.834;9.194;2022-08-01T03:54:00;21.20;37.40
3067;DHT22;1544;48.834;9.194;2022-08-01T03:56:32;21.20;37.50
3067;DHT22;1544;48.834;9.194;2022-08-01T03:59:04;21.20;37.50
3067;DHT22;1544;48.834;9.194;2022-08-01T04:01:36;21.10;37.60
3067;DHT22;1544;48.834;9.194;2022-08-01T04:04:08;21.20;37.70
3067;DHT22;1544;48.834;9.194;2022-08-01T04:06:40;21.10;37.70
3067;DHT22;1544;48.834;9.194;2022-08-01T04:09:11;21.20;37.90
3067;DHT22;1544;48.834;9.194;2022-08-01T04:11:43;21.20;37.80
3067;DHT22;1544;48.834;9.194;2022-08-01T04:14:15;21.20;37.80
3067;DHT22;1544;48.834;9.194;2022-08-01T04:16:46;21.20;37.90
3067;DHT22;1544;48.834;9.194;2022-08-01T04:19:18;21.20;37.90
3067;DHT22;1544;48.834;9.194;2022-08-01T04:21:49;21.20;37.90
3067;DHT22;1544;48.834;9.194;2022-08-01T04:24:22;21.20;38.00
3067;DHT22;1544;48.834;9.194;2022-08-01T04:26:54;21.20;38.10
3067;DHT22;1544;48.834;9.194;2022-08-01T04:29:27;21.30;38.20
3067;DHT22;1544;48.834;9.194;2022-08-01T04:32:01;21.30;38.70
3067;DHT22;1544;48.834;9.194;2022-08-01T04:34:33;21.30;38.30
3067;DHT22;1544;48.834;9.194;2022-08-01T04:37:08;21.30;38.30
3067;DHT22;1544;48.834;9.194;2022-08-01T04:39:43;21.30;38.30
3067;DHT22;1544;48.834;9.194;2022-08-01T04:42:21;21.30;38.50
3067;DHT22;1544;48.834;9.194;2022-08-01T04:45:03;21.30;38.50
3067;DHT22;1544;48.834;9.194;2022-08-01T04:47:36;21.30;38.60
3067;DHT22;1544;48.834;9.194;2022-08-01T04:50:08;21.30;38.60
3067;DHT22;1544;48.834;9.194;2022-08-01T04:52:39;21.30;38.80
3067;DHT22;1544;48.834;9.194;2022-08-01T04:55:12;21.40;38.90
3067;DHT22;1544;48.834;9.194;2022-08-01T04:57:44;21.40;38.80
3067;DHT22;1544;48.834;9.194;2022-08-01T05:00:17;21.40;39.10
3067;DHT22;1544;48.834;9.194;2022-08-01T05:02:48;21.40;39.20
3067;DHT22;1544;48.834;9.194;2022-08-01T05:05:21;21.50;39.20
3067;DHT22;1544;48.834;9.194;2022-08-01T05:07:53;21.50;39.30
3067;DHT22;1544;48.834;9.194;2022-08-01T05:10:24;21.60;39.30
3067;DHT22;1544;48.834;9.194;2022-08-01T05:12:56;21.70;39.60
3067;DHT22;1544;48.834;9.194;2022-08-01T05:15:28;21.60;39.40
3067;DHT22;1544;48.834;9.194;2022-08-01T05:17:59;21.70;39.60
3067;DHT22;1544;48.834;9.194;2022-08-01T05:20:30;21.80;39.50
3067;DHT22;1544;48.834;9.194;2022-08-01T05:23:03;21.80;39.50
3067;DHT22;1544;48.834;9.194;2022-08-01T05:25:34;21.80;39.50
3067;DHT22;1544;48.834;9.194;2022-08-01T05:28:25;21.90;39.60
3067;DHT22;1544;48.834;9.194;2022-08-01T05:30:57;22.00;39.50
3067;DHT22;1544;48.834;9.194;2022-08-01T05:33:28;22.10;39.70
3067;DHT22;1544;48.834;9.194;2022-08-01T05:35:59;22.10;39.60
3067;DHT22;1544;48.834;9.194;2022-08-01T05:38:30;22.10;39.50
3067;DHT22;1544;48.834;9.194;2022-08-01T05:41:01;22.20;39.50
3067;DHT22;1544;48.834;9.194;2022-08-01T05:43:32;22.30;39.50
3067;DHT22;1544;48.834;9.194;2022-08-01T05:46:03;22.30;39.40
3067;DHT22;1544;48.834;9.194;2022-08-01T05:48:34;22.30;39.50
3067;DHT22;1544;48.834;9.194;2022-08-01T05:51:05;22.40;39.50
3067;DHT22;1544;48.834;9.194;2022-08-01T05:53:36;22.50;39.20
3067;DHT22;1544;48.834;9.194;2022-08-01T05:56:08;22.60;39.00
3067;DHT22;1544;48.834;9.194;2022-08-01T05:58:40;22.70;39.10
3067;DHT22;1544;48.834;9.194;2022-08-01T06:01:11;22.70;39.20
3067;DHT22;1544;48.834;9.194;2022-08-01T06:03:42;22.80;39.10
3067;DHT22;1544;48.834;9.194;2022-08-01T06:06:15;22.90;39.00
3067;DHT22;1544;48.834;9.194;2022-08-01T06:08:47;23.00;38.90
3067;DHT22;1544;48.834;9.194;2022-08-01T06:11:21;23.00;38.80
3067;DHT22;1544;48.834;9.194;2022-08-01T06:13:52;23.10;38.80
3067;DHT22;1544;48.834;9.194;2022-08-01T06:16:24;23.10;38.70
3067;DHT22;1544;48.834;9.194;2022-08-01T06:18:55;23.10;38.70
3067;DHT22;1544;48.834;9.194;2022-08-01T06:21:26;23.10;38.70
3067;DHT22;1544;48.834;9.194;2022-08-01T06:23:58;23.10;38.70
3067;DHT22;1544;48.834;9.194;2022-08-01T06:26:28;23.10;38.80
3067;DHT22;1544;48.834;9.194;2022-08-01T06:29:00;23.20;38.90
3067;DHT22;1544;48.834;9.194;2022-08-01T06:31:31;23.20;38.80
3067;DHT22;1544;48.834;9.194;2022-08-01T06:34:03;23.30;38.80
3067;DHT22;1544;48.834;9.194;2022-08-01T06:36:34;23.30;38.70
3067;DHT22;1544;48.834;9.194;2022-08-01T06:39:05;23.30;38.90
3067;DHT22;1544;48.834;9.194;2022-08-01T06:41:37;23.30;38.90
3067;DHT22;1544;48.834;9.194;2022-08-01T06:44:08;23.40;38.80
3067;DHT22;1544;48.834;9.194;2022-08-01T06:46:39;23.40;38.60
3067;DHT22;1544;48.834;9.194;2022-08-01T06:49:10;23.50;38.50
3067;DHT22;1544;48.834;9.194;2022-08-01T06:51:41;23.60;38.40
3067;DHT22;1544;48.834;9.194;2022-08-01T06:54:12;23.70;38.30
3067;DHT22;1544;48.834;9.194;2022-08-01T06:56:43;23.80;38.10
3067;DHT22;1544;48.834;9.194;2022-08-01T06:59:15;23.80;38.00
3067;DHT22;1544;48.834;9.194;2022-08-01T07:01:46;24.00;37.70
3067;DHT22;1544;48.834;9.194;2022-08-01T07:04:17;24.10;37.70
3067;DHT22;1544;48.834;9.194;2022-08-01T07:06:48;24.20;37.40
3067;DHT22;1544;48.834;9.194;2022-08-01T07:09:20;24.50;37.50
3067;DHT22;1544;48.834;9.194;2022-08-01T07:11:51;24.60;37.10
3067;DHT22;1544;48.834;9.194;2022-08-01T07:14:23;24.70;37.00
3067;DHT22;1544;48.834;9.194;2022-08-01T07:16:54;24.90;36.90
3067;DHT22;1544;48.834;9.194;2022-08-01T07:19:25;25.00;36.80
3067;DHT22;1544;48.834;9.194;2022-08-01T07:21:57;25.00;36.60
3067;DHT22;1544;48.834;9.194;2022-08-01T07:24:28;25.00;36.40
3067;DHT22;1544;48.834;9.194;2022-08-01T07:26:59;25.00;36.50
3067;DHT22;1544;48.834;9.194;2022-08-01T07:29:50;25.00;36.50
3067;DHT22;1544;48.834;9.194;2022-08-01T07:32:23;24.90;36.50
3067;DHT22;1544;48.834;9.194;2022-08-01T07:34:54;24.90;36.60
3067;DHT22;1544;48.834;9.194;2022-08-01T07:37:26;24.90;36.80
3067;DHT22;1544;48.834;9.194;2022-08-01T07:40:18;24.80;36.60
3067;DHT22;1544;48.834;9.194;2022-08-01T07:42:49;24.80;36.80
3067;DHT22;1544;48.834;9.194;2022-08-01T07:45:20;24.90;36.90
3067;DHT22;1544;48.834;9.194;2022-08-01T07:47:51;24.90;36.70
3067;DHT22;1544;48.834;9.194;2022-08-01T07:50:22;24.90;36.80
3067;DHT22;1544;48.834;9.194;2022-08-01T07:52:53;24.90;36.70
3067;DHT22;1544;48.834;9.194;2022-08-01T07:55:24;25.00;36.60
3067;DHT22;1544;48.834;9.194;2022-08-01T07:57:55;25.20;36.60
3067;DHT22;1544;48.834;9.194;2022-08-01T08:00:26;25.40;36.30
3067;DHT22;1544;48.834;9.194;2022-08-01T08:02:59;25.60;36.00
3067;DHT22;1544;48.834;9.194;2022-08-01T08:05:30;25.70;35.70
3067;DHT22;1544;48.834;9.194;2022-08-01T08:08:21;25.80;35.70
3067;DHT22;1544;48.834;9.194;2022-08-01T08:10:53;26.10;35.70
3067;DHT22;1544;48.834;9.194;2022-08-01T08:13:24;26.20;35.30
3067;DHT22;1544;48.834;9.194;2022-08-01T08:15:55;26.20;35.20
3067;DHT22;1544;48.834;9.194;2022-08-01T08:18:27;26.10;35.50
3067;DHT22;1544;48.834;9.194;2022-08-01T08:20:58;26.10;35.20
3067;DHT22;1544;48.834;9.194;2022-08-01T08:23:36;26.10;35.10
3067;DHT22;1544;48.834;9.194;2022-08-01T08:26:25;26.00;35.10
3067;DHT22;1544;48.834;9.194;2022-08-01T08:28:58;26.10;35.10
3067;DHT22;1544;48.834;9.194;2022-08-01T08:31:29;26.10;35.10
3067;DHT22;1544;48.834;9.194;2022-08-01T08:34:20;26.00;35.10
3067;DHT22;1544;48.834;9.194;2022-08-01T08:36:52;26.10;35.20
3067;DHT22;1544;48.834;9.194;2022-08-01T08:39:25;26.10;35.00
3067;DHT22;1544;48.834;9.194;2022-08-01T08:41:58;26.20;34.80
3067;DHT22;1544;48.834;9.194;2022-08-01T08:44:30;26.50;34.80
3067;DHT22;1544;48.834;9.194;2022-08-01T08:47:02;26.80;34.50
3067;DHT22;1544;48.834;9.194;2022-08-01T08:49:39;27.00;34.00
3067;DHT22;1544;48.834;9.194;2022-08-01T08:52:14;27.10;33.90
3067;DHT22;1544;48.834;9.194;2022-08-01T08:54:48;27.30;33.80
3067;DHT22;1544;48.834;9.194;2022-08-01T08:57:21;27.40;33.90
3067;DHT22;1544;48.834;9.194;2022-08-01T08:59:53;27.50;33.50
3067;DHT22;1544;48.834;9.194;2022-08-01T09:02:25;27.60;33.50
3067;DHT22;1544;48.834;9.194;2022-08-01T09:04:57;27.60;33.20
3067;DHT22;1544;48.834;9.194;2022-08-01T09:07:29;27.60;33.30
3067;DHT22;1544;48.834;9.194;2022-08-01T09:10:00;27.60;33.00
3067;DHT22;1544;48.834;9.194;2022-08-01T09:12:32;27.60;33.00
3067;DHT22;1544;48.834;9.194;2022-08-01T09:15:03;27.50;33.00
3067;DHT22;1544;48.834;9.194;2022-08-01T09:17:41;27.60;33.20
3067;DHT22;1544;48.834;9.194;2022-08-01T09:20:23;27.50;33.00
3067;DHT22;1544;48.834;9.194;2022-08-01T09:22:55;27.50;33.10
3067;DHT22;1544;48.834;9.194;2022-08-01T09:25:26;27.60;33.10
3067;DHT22;1544;48.834;9.194;2022-08-01T09:28:16;27.60;33.10
3067;DHT22;1544;48.834;9.194;2022-08-01T09:30:52;27.80;33.00
3067;DHT22;1544;48.834;9.194;2022-08-01T09:33:47;27.80;32.90
3067;DHT22;1544;48.834;9.194;2022-08-01T09:36:44;27.90;32.90
3067;DHT22;1544;48.834;9.194;2022-08-01T09:39:20;28.00;33.00
3067;DHT22;1544;48.834;9.194;2022-08-01T09:41:57;28.10;32.90
3067;DHT22;1544;48.834;9.194;2022-08-01T09:47:14;28.10;32.80
3067;DHT22;1544;48.834;9.194;2022-08-01T09:49:55;28.10;32.60
3067;DHT22;1544;48.834;9.194;2022-08-01T09:52:29;28.20;32.60
3067;DHT22;1544;48.834;9.194;2022-08-01T09:55:03;28.30;32.70
3067;DHT22;1544;48.834;9.194;2022-08-01T09:57:36;28.40;32.40
3067;DHT22;1544;48.834;9.194;2022-08-01T10:00:17;28.40;32.10
3067;DHT22;1544;48.834;9.194;2022-08-01T10:03:23;28.40;32.20
3067;DHT22;1544;48.834;9.194;2022-08-01T10:05:56;28.40;32.20
3067;DHT22;1544;48.834;9.194;2022-08-01T10:08:46;28.30;32.30
3067;DHT22;1544;48.834;9.194;2022-08-01T10:11:19;28.40;32.10
3067;DHT22;1544;48.834;9.194;2022-08-01T10:14:06;28.10;32.10
3067;DHT22;1544;48.834;9.194;2022-08-01T10:16:38;28.10;32.20
3067;DHT22;1544;48.834;9.194;2022-08-01T10:19:09;28.10;32.20
3067;DHT22;1544;48.834;9.194;2022-08-01T10:21:46;28.20;32.10
3067;DHT22;1544;48.834;9.194;2022-08-01T10:24:29;28.30;32.00
3067;DHT22;1544;48.834;9.194;2022-08-01T10:27:05;28.50;32.00
3067;DHT22;1544;48.834;9.194;2022-08-01T10:29:43;28.40;31.80
3067;DHT22;1544;48.834;9.194;2022-08-01T10:32:37;28.40;31.80
3067;DHT22;1544;48.834;9.194;2022-08-01T10:35:09;28.20;31.80
3067;DHT22;1544;48.834;9.194;2022-08-01T10:38:07;28.10;32.00
3067;DHT22;1544;48.834;9.194;2022-08-01T10:40:44;28.00;31.90
3067;DHT22;1544;48.834;9.194;2022-08-01T10:43:16;28.10;31.90
3067;DHT22;1544;48.834;9.194;2022-08-01T10:45:52;28.10;31.90
3067;DHT22;1544;48.834;9.194;2022-08-01T10:51:23;28.30;31.60
3067;DHT22;1544;48.834;9.194;2022-08-01T10:54:14;28.60;31.50
3067;DHT22;1544;48.834;9.194;2022-08-01T10:56:48;29.00;31.40
3067;DHT22;1544;48.834;9.194;2022-08-01T10:59:21;29.30;30.60
3067;DHT22;1544;48.834;9.194;2022-08-01T11:02:27;29.30;30.40
3067;DHT22;1544;48.834;9.194;2022-08-01T11:05:17;29.00;30.50
3067;DHT22;1544;48.834;9.194;2022-08-01T11:07:54;28.90;30.60
3067;DHT22;1544;48.834;9.194;2022-08-01T11:10:41;28.80;30.70
3067;DHT22;1544;48.834;9.194;2022-08-01T11:16:30;28.90;30.50
3067;DHT22;1544;48.834;9.194;2022-08-01T11:19:06;29.00;30.60
3067;DHT22;1544;48.834;9.194;2022-08-01T11:27:31;29.20;30.40
3067;DHT22;1544;48.834;9.194;2022-08-01T11:32:54;29.30;30.10
3067;DHT22;1544;48.834;9.194;2022-08-01T11:36:16;29.30;30.00
3067;DHT22;1544;48.834;9.194;2022-08-01T11:41:31;29.90;30.20
3067;DHT22;1544;48.834;9.194;2022-08-01T11:44:20;30.10;30.00
3067;DHT22;1544;48.834;9.194;2022-08-01T11:47:05;30.20;29.70
3067;DHT22;1544;48.834;9.194;2022-08-01T11:49:46;30.20;29.70
3067;DHT22;1544;48.834;9.194;2022-08-01T11:52:25;30.30;29.70
3067;DHT22;1544;48.834;9.194;2022-08-01T11:55:08;30.30;29.80
3067;DHT22;1544;48.834;9.194;2022-08-01T11:57:41;30.50;29.80
3067;DHT22;1544;48.834;9.194;2022-08-01T12:00:17;30.40;29.60
3067;DHT22;1544;48.834;9.194;2022-08-01T12:02:57;30.40;29.40
3067;DHT22;1544;48.834;9.194;2022-08-01T12:05:35;30.40;29.30
3067;DHT22;1544;48.834;9.194;2022-08-01T12:08:13;30.60;29.30
3067;DHT22;1544;48.834;9.194;2022-08-01T12:10:49;30.70;29.00
3067;DHT22;1544;48.834;9.194;2022-08-01T12:13:42;30.70;28.90
3067;DHT22;1544;48.834;9.194;2022-08-01T12:16:15;30.90;28.80
3067;DHT22;1544;48.834;9.194;2022-08-01T12:18:46;31.10;28.90
3067;DHT22;1544;48.834;9.194;2022-08-01T12:21:17;31.30;29.00
3067;DHT22;1544;48.834;9.194;2022-08-01T12:24:02;31.40;28.90
3067;DHT22;1544;48.834;9.194;2022-08-01T12:26:41;31.60;28.90
3067;DHT22;1544;48.834;9.194;2022-08-01T12:29:34;31.70;28.90
3067;DHT22;1544;48.834;9.194;2022-08-01T12:32:32;31.90;28.90
3067;DHT22;1544;48.834;9.194;2022-08-01T12:35:10;31.90;28.80
3067;DHT22;1544;48.834;9.194;2022-08-01T12:37:51;32.10;28.90
3067;DHT22;1544;48.834;9.194;2022-08-01T12:40:31;32.40;28.90
3067;DHT22;1544;48.834;9.194;2022-08-01T12:43:07;32.50;28.70
3067;DHT22;1544;48.834;9.194;2022-08-01T12:45:48;32.60;28.50
3067;DHT22;1544;48.834;9.194;2022-08-01T12:48:27;32.70;28.50
3067;DHT22;1544;48.834;9.194;2022-08-01T12:50:59;32.70;28.50
3067;DHT22;1544;48.834;9.194;2022-08-01T12:53:35;32.80;28.30
3067;DHT22;1544;48.834;9.194;2022-08-01T12:56:11;32.80;28.10
3067;DHT22;1544;48.834;9.194;2022-08-01T12:58:42;32.90;28.10
3067;DHT22;1544;48.834;9.194;2022-08-01T13:01:13;33.10;27.90
3067;DHT22;1544;48.834;9.194;2022-08-01T13:03:59;33.10;27.70
3067;DHT22;1544;48.834;9.194;2022-08-01T13:06:31;33.30;27.90
3067;DHT22;1544;48.834;9.194;2022-08-01T13:09:08;33.60;27.70
3067;DHT22;1544;48.834;9.194;2022-08-01T13:11:41;33.70;27.70
3067;DHT22;1544;48.834;9.194;2022-08-01T13:14:32;33.80;27.80
3067;DHT22;1544;48.834;9.194;2022-08-01T13:17:03;33.90;27.80
3067;DHT22;1544;48.834;9.194;2022-08-01T13:19:42;34.10;27.70
3067;DHT22;1544;48.834;9.194;2022-08-01T13:22:15;34.20;27.40
3067;DHT22;1544;48.834;9.194;2022-08-01T13:24:46;34.10;27.40
3067;DHT22;1544;48.834;9.194;2022-08-01T13:27:21;34.00;27.40
3067;DHT22;1544;48.834;9.194;2022-08-01T13:30:19;33.90;27.50
3067;DHT22;1544;48.834;9.194;2022-08-01T13:33:00;34.00;27.20
3067;DHT22;1544;48.834;9.194;2022-08-01T13:35:32;33.90;27.20
3067;DHT22;1544;48.834;9.194;2022-08-01T13:38:03;33.90;27.30
3067;DHT22;1544;48.834;9.194;2022-08-01T13:40:34;33.90;27.30
3067;DHT22;1544;48.834;9.194;2022-08-01T13:43:05;33.80;27.50
3067;DHT22;1544;48.834;9.194;2022-08-01T13:45:36;33.70;27.60
3067;DHT22;1544;48.834;9.194;2022-08-01T13:48:09;33.60;27.60
3067;DHT22;1544;48.834;9.194;2022-08-01T13:50:48;33.60;27.60
3067;DHT22;1544;48.834;9.194;2022-08-01T13:53:39;33.50;27.70
3067;DHT22;1544;48.834;9.194;2022-08-01T13:56:10;33.40;27.70
3067;DHT22;1544;48.834;9.194;2022-08-01T13:58:41;33.60;27.60
3067;DHT22;1544;48.834;9.194;2022-08-01T14:01:13;33.90;27.50
3067;DHT22;1544;48.834;9.194;2022-08-01T14:03:44;33.90;27.40
3067;DHT22;1544;48.834;9.194;2022-08-01T14:06:15;33.80;27.40
3067;DHT22;1544;48.834;9.194;2022-08-01T14:08:49;33.80;27.50
3067;DHT22;1544;48.834;9.194;2022-08-01T14:11:20;34.00;27.40
3067;DHT22;1544;48.834;9.194;2022-08-01T14:13:51;34.10;27.30
3067;DHT22;1544;48.834;9.194;2022-08-01T14:16:23;34.20;27.40
3067;DHT22;1544;48.834;9.194;2022-08-01T14:18:54;34.40;27.40
3067;DHT22;1544;48.834;9.194;2022-08-01T14:21:25;34.70;27.20
3067;DHT22;1544;48.834;9.194;2022-08-01T14:23:56;35.00;27.10
3067;DHT22;1544;48.834;9.194;2022-08-01T14:26:27;35.10;27.00
3067;DHT22;1544;48.834;9.194;2022-08-01T14:28:58;35.30;26.90
3067;DHT22;1544;48.834;9.194;2022-08-01T14:31:30;35.30;26.70
3067;DHT22;1544;48.834;9.194;2022-08-01T14:34:04;35.20;26.70
3067;DHT22;1544;48.834;9.194;2022-08-01T14:36:35;35.10;26.90
3067;DHT22;1544;48.834;9.194;2022-08-01T14:39:08;35.00;27.00
3067;DHT22;1544;48.834;9.194;2022-08-01T14:41:44;35.10;27.10
3067;DHT22;1544;48.834;9.194;2022-08-01T14:44:16;35.10;26.70
3067;DHT22;1544;48.834;9.194;2022-08-01T14:46:47;35.00;26.70
3067;DHT22;1544;48.834;9.194;2022-08-01T14:49:27;35.00;26.70
3067;DHT22;1544;48.834;9.194;2022-08-01T14:51:58;34.80;26.60
3067;DHT22;1544;48.834;9.194;2022-08-01T14:54:29;35.00;26.90
3067;DHT22;1544;48.834;9.194;2022-08-01T14:57:00;35.40;26.80
3067;DHT22;1544;48.834;9.194;2022-08-01T14:59:31;35.70;26.60
3067;DHT22;1544;48.834;9.194;2022-08-01T15:02:03;35.80;26.30
3067;DHT22;1544;48.834;9.194;2022-08-01T15:04:34;35.70;26.40
3067;DHT22;1544;48.834;9.194;2022-08-01T15:07:06;35.70;26.50
3067;DHT22;1544;48.834;9.194;2022-08-01T15:09:39;35.60;26.50
3067;DHT22;1544;48.834;9.194;2022-08-01T15:12:11;35.50;26.60
3067;DHT22;1544;48.834;9.194;2022-08-01T15:14:42;35.30;26.30
3067;DHT22;1544;48.834;9.194;2022-08-01T15:17:24;35.00;26.50
3067;DHT22;1544;48.834;9.194;2022-08-01T15:20:03;34.60;26.60
3067;DHT22;1544;48.834;9.194;2022-08-01T15:22:35;34.50;26.70
3067;DHT22;1544;48.834;9.194;2022-08-01T15:25:07;34.60;26.70
3067;DHT22;1544;48.834;9.194;2022-08-01T15:27:38;34.80;26.70
3067;DHT22;1544;48.834;9.194;2022-08-01T15:30:09;35.30;26.70
3067;DHT22;1544;48.834;9.194;2022-08-01T15:32:41;35.80;26.30
3067;DHT22;1544;48.834;9.194;2022-08-01T15:35:12;35.80;26.10
3067;DHT22;1544;48.834;9.194;2022-08-01T15:37:43;35.70;26.10
3067;DHT22;1544;48.834;9.194;2022-08-01T15:40:14;35.60;26.20
3067;DHT22;1544;48.834;9.194;2022-08-01T15:42:45;35.50;26.20
3067;DHT22;1544;48.834;9.194;2022-08-01T15:45:16;35.30;26.20
3067;DHT22;1544;48.834;9.194;2022-08-01T15:48:09;35.00;26.30
3067;DHT22;1544;48.834;9.194;2022-08-01T15:50:40;34.80;26.80
3067;DHT22;1544;48.834;9.194;2022-08-01T15:53:11;34.70;26.40
3067;DHT22;1544;48.834;9.194;2022-08-01T15:55:42;34.70;26.50
3067;DHT22;1544;48.834;9.194;2022-08-01T15:58:22;34.40;26.40
3067;DHT22;1544;48.834;9.194;2022-08-01T16:00:53;34.00;26.50
3067;DHT22;1544;48.834;9.194;2022-08-01T16:03:24;33.80;26.70
3067;DHT22;1544;48.834;9.194;2022-08-01T16:05:57;33.60;27.10
3067;DHT22;1544;48.834;9.194;2022-08-01T16:08:28;33.30;26.90
3067;DHT22;1544;48.834;9.194;2022-08-01T16:10:59;33.00;27.00
3067;DHT22;1544;48.834;9.194;2022-08-01T16:13:30;32.80;27.20
3067;DHT22;1544;48.834;9.194;2022-08-01T16:16:01;32.60;27.60
3067;DHT22;1544;48.834;9.194;2022-08-01T16:18:34;32.60;27.40
3067;DHT22;1544;48.834;9.194;2022-08-01T16:21:06;32.40;27.40
3067;DHT22;1544;48.834;9.194;2022-08-01T16:23:42;32.40;27.50
3067;DHT22;1544;48.834;9.194;2022-08-01T16:26:13;32.50;27.40
3067;DHT22;1544;48.834;9.194;2022-08-01T16:28:57;32.80;27.30
3067;DHT22;1544;48.834;9.194;2022-08-01T16:31:28;32.90;27.60
3067;DHT22;1544;48.834;9.194;2022-08-01T16:34:20;32.90;27.20
3067;DHT22;1544;48.834;9.194;2022-08-01T16:36:53;32.70;27.30
3067;DHT22;1544;48.834;9.194;2022-08-01T16:39:25;32.60;27.30
3067;DHT22;1544;48.834;9.194;2022-08-01T16:41:56;32.50;27.40
3067;DHT22;1544;48.834;9.194;2022-08-01T16:44:27;32.40;27.80
3067;DHT22;1544;48.834;9.194;2022-08-01T16:47:04;32.40;27.50
3067;DHT22;1544;48.834;9.194;2022-08-01T16:49:35;32.40;27.60
3067;DHT22;1544;48.834;9.194;2022-08-01T16:52:06;32.20;27.60
3067;DHT22;1544;48.834;9.194;2022-08-01T16:54:38;32.00;27.60
3067;DHT22;1544;48.834;9.194;2022-08-01T16:57:09;31.80;27.70
3067;DHT22;1544;48.834;9.194;2022-08-01T16:59:41;31.60;27.80
3067;DHT22;1544;48.834;9.194;2022-08-01T17:02:12;31.40;27.90
3067;DHT22;1544;48.834;9.194;2022-08-01T17:04:43;31.20;28.10
3067;DHT22;1544;48.834;9.194;2022-08-01T17:07:14;31.10;28.20
3067;DHT22;1544;48.834;9.194;2022-08-01T17:09:45;31.00;28.30
3067;DHT22;1544;48.834;9.194;2022-08-01T17:12:16;30.80;28.30
3067;DHT22;1544;48.834;9.194;2022-08-01T17:14:52;30.70;28.30
3067;DHT22;1544;48.834;9.194;2022-08-01T17:17:24;30.60;28.50
3067;DHT22;1544;48.834;9.194;2022-08-01T17:19:55;30.50;28.60
3067;DHT22;1544;48.834;9.194;2022-08-01T17:22:26;30.30;28.60